sensor_id;sensor_type;location;lat;lon;timestamp;P1;durP1;ratioP1;P2;durP2;ratioP2
70270;SDS011;57680;54.292;18.598;2022-12-18T00:01:12;41.73;;;12.50;;
70270;SDS011;57680;54.292;18.598;2022-12-18T00:03:43;41.15;;;12.98;;
70270;SDS011;57680;54.292;18.598;2022-12-18T00:06:09;42.45;;;14.13;;
70270;SDS011;57680;54.292;18.598;2022-12-18T00:08:35;41.10;;;13.60;;
70270;SDS011;57680;54.292;18.598;2022-12-18T00:11:04;26.58;;;10.43;;
70270;SDS011;57680;54.292;18.598;2022-12-18T00:13:31;25.33;;;10.18;;
70270;SDS011;57680;54.292;18.598;2022-12-18T00:16:00;29.58;;;12.18;;
70270;SDS011;57680;54.292;18.598;2022-12-18T00:18:30;42.58;;;14.30;;
70270;SDS011;57680;54.292;18.598;2022-12-18T00:21:00;29.17;;;11.13;;
70270;SDS011;57680;54.292;18.598;2022-12-18T00:23:26;31.33;;;11.90;;
70270;SDS011;57680;54.292;18.598;2022-12-18T00:25:53;31.77;;;10.63;;
70270;SDS011;57680;54.292;18.598;2022-12-18T00:28:18;33.53;;;12.37;;
70270;SDS011;57680;54.292;18.598;2022-12-18T00:30:44;29.50;;;10.45;;
70270;SDS011;57680;54.292;18.598;2022-12-18T00:33:09;27.90;;;9.80;;
70270;SDS011;57680;54.292;18.598;2022-12-18T00:35:34;30.20;;;11.20;;
70270;SDS011;57680;54.292;18.598;2022-12-18T00:38:00;30.07;;;10.67;;
70270;SDS011;57680;54.292;18.598;2022-12-18T00:40:25;31.20;;;9.85;;
70270;SDS011;57680;54.292;18.598;2022-12-18T00:42:51;29.02;;;9.77;;
70270;SDS011;57680;54.292;18.598;2022-12-18T00:45:23;35.42;;;10.82;;
70270;SDS011;57680;54.292;18.598;2022-12-18T00:47:55;32.80;;;10.38;;
70270;SDS011;57680;54.292;18.598;2022-12-18T00:50:21;30.95;;;10.25;;
70270;SDS011;57680;54.292;18.598;2022-12-18T00:52:48;29.52;;;10.43;;
70270;SDS011;57680;54.292;18.598;2022-12-18T00:55:14;30.95;;;9.57;;
70270;SDS011;57680;54.292;18.598;2022-12-18T00:57:40;33.00;;;11.25;;
70270;SDS011;57680;54.292;18.598;2022-12-18T01:00:06;36.60;;;10.95;;
70270;SDS011;57680;54.292;18.598;2022-12-18T01:02:33;29.15;;;10.43;;
70270;SDS011;57680;54.292;18.598;2022-12-18T01:04:59;34.83;;;11.10;;
70270;SDS011;57680;54.292;18.598;2022-12-18T01:07:24;22.40;;;6.90;;
70270;SDS011;57680;54.292;18.598;2022-12-18T01:09:50;35.67;;;10.93;;
70270;SDS011;57680;54.292;18.598;2022-12-18T01:12:15;32.97;;;10.57;;
70270;SDS011;57680;54.292;18.598;2022-12-18T01:14:40;33.70;;;11.70;;
70270;SDS011;57680;54.292;18.598;2022-12-18T01:17:06;24.48;;;9.25;;
70270;SDS011;57680;54.292;18.598;2022-12-18T01:19:32;22.77;;;8.70;;
70270;SDS011;57680;54.292;18.598;2022-12-18T01:21:57;30.33;;;10.48;;
70270;SDS011;57680;54.292;18.598;2022-12-18T01:24:23;27.33;;;8.60;;
70270;SDS011;57680;54.292;18.598;2022-12-18T01:26:48;37.45;;;12.60;;
70270;SDS011;57680;54.292;18.598;2022-12-18T01:29:14;36.13;;;10.07;;
70270;SDS011;57680;54.292;18.598;2022-12-18T01:31:40;30.13;;;10.13;;
70270;SDS011;57680;54.292;18.598;2022-12-18T01:34:05;36.72;;;11.40;;
70270;SDS011;57680;54.292;18.598;2022-12-18T01:36:32;37.10;;;11.33;;
70270;SDS011;57680;54.292;18.598;2022-12-18T01:39:00;38.28;;;12.32;;
70270;SDS011;57680;54.292;18.598;2022-12-18T01:41:28;42.42;;;13.70;;
70270;SDS011;57680;54.292;18.598;2022-12-18T01:47:43;34.08;;;10.40;;
70270;SDS011;57680;54.292;18.598;2022-12-18T01:53:21;39.70;;;12.80;;
70270;SDS011;57680;54.292;18.598;2022-12-18T01:55:50;41.00;;;12.63;;
70270;SDS011;57680;54.292;18.598;2022-12-18T01:58:19;36.58;;;10.68;;
70270;SDS011;57680;54.292;18.598;2022-12-18T02:00:47;42.65;;;12.30;;
70270;SDS011;57680;54.292;18.598;2022-12-18T02:03:13;38.83;;;11.75;;
70270;SDS011;57680;54.292;18.598;2022-12-18T02:17:07;36.10;;;11.63;;
70270;SDS011;57680;54.292;18.598;2022-12-18T02:25:18;26.20;;;9.30;;
70270;SDS011;57680;54.292;18.598;2022-12-18T02:28:06;36.63;;;10.43;;
70270;SDS011;57680;54.292;18.598;2022-12-18T02:30:34;30.20;;;10.30;;
70270;SDS011;57680;54.292;18.598;2022-12-18T02:33:04;31.88;;;10.10;;
70270;SDS011;57680;54.292;18.598;2022-12-18T02:35:32;35.38;;;11.35;;
70270;SDS011;57680;54.292;18.598;2022-12-18T02:37:59;39.40;;;11.70;;
70270;SDS011;57680;54.292;18.598;2022-12-18T02:40:26;18.38;;;7.75;;
70270;SDS011;57680;54.292;18.598;2022-12-18T02:42:53;37.57;;;11.77;;
70270;SDS011;57680;54.292;18.598;2022-12-18T02:45:19;32.72;;;9.63;;
70270;SDS011;57680;54.292;18.598;2022-12-18T02:47:46;28.92;;;10.70;;
70270;SDS011;57680;54.292;18.598;2022-12-18T02:55:49;29.02;;;9.85;;
70270;SDS011;57680;54.292;18.598;2022-12-18T03:04:19;25.00;;;8.35;;
70270;SDS011;57680;54.292;18.598;2022-12-18T03:06:53;30.10;;;9.27;;
70270;SDS011;57680;54.292;18.598;2022-12-18T03:09:23;21.92;;;7.40;;
70270;SDS011;57680;54.292;18.598;2022-12-18T03:11:56;23.35;;;7.85;;
70270;SDS011;57680;54.292;18.598;2022-12-18T03:14:48;21.80;;;7.10;;
70270;SDS011;57680;54.292;18.598;2022-12-18T03:17:38;20.25;;;6.88;;
70270;SDS011;57680;54.292;18.598;2022-12-18T03:20:10;23.13;;;8.85;;
70270;SDS011;57680;54.292;18.598;2022-12-18T03:22:39;18.17;;;6.45;;
70270;SDS011;57680;54.292;18.598;2022-12-18T03:25:09;24.08;;;7.70;;
70270;SDS011;57680;54.292;18.598;2022-12-18T03:27:38;12.73;;;5.50;;
70270;SDS011;57680;54.292;18.598;2022-12-18T03:30:09;21.27;;;7.40;;
70270;SDS011;57680;54.292;18.598;2022-12-18T03:32:47;12.10;;;5.35;;
70270;SDS011;57680;54.292;18.598;2022-12-18T03:35:19;15.38;;;5.20;;
70270;SDS011;57680;54.292;18.598;2022-12-18T03:37:47;14.85;;;4.78;;
70270;SDS011;57680;54.292;18.598;2022-12-18T03:40:13;16.13;;;4.97;;
70270;SDS011;57680;54.292;18.598;2022-12-18T03:42:44;16.27;;;5.97;;
70270;SDS011;57680;54.292;18.598;2022-12-18T03:45:23;14.95;;;5.70;;
70270;SDS011;57680;54.292;18.598;2022-12-18T03:48:51;14.93;;;6.13;;
70270;SDS011;57680;54.292;18.598;2022-12-18T03:50:54;19.50;;;7.30;;
70270;SDS011;57680;54.292;18.598;2022-12-18T03:53:32;17.73;;;6.45;;
70270;SDS011;57680;54.292;18.598;2022-12-18T03:56:08;13.40;;;5.55;;
70270;SDS011;57680;54.292;18.598;2022-12-18T03:58:35;18.35;;;6.40;;
70270;SDS011;57680;54.292;18.598;2022-12-18T04:04:40;19.15;;;5.97;;
70270;SDS011;57680;54.292;18.598;2022-12-18T04:07:07;16.25;;;5.90;;
70270;SDS011;57680;54.292;18.598;2022-12-18T04:09:33;16.15;;;5.90;;
70270;SDS011;57680;54.292;18.598;2022-12-18T04:12:01;15.43;;;6.55;;
70270;SDS011;57680;54.292;18.598;2022-12-18T04:14:26;17.42;;;4.93;;
70270;SDS011;57680;54.292;18.598;2022-12-18T04:16:51;16.77;;;6.17;;
70270;SDS011;57680;54.292;18.598;2022-12-18T04:19:17;18.67;;;6.40;;
70270;SDS011;57680;54.292;18.598;2022-12-18T04:21:42;18.13;;;6.43;;
70270;SDS011;57680;54.292;18.598;2022-12-18T04:24:08;19.65;;;7.03;;
70270;SDS011;57680;54.292;18.598;2022-12-18T04:26:33;23.27;;;7.45;;
70270;SDS011;57680;54.292;18.598;2022-12-18T04:31:46;19.95;;;6.88;;
70270;SDS011;57680;54.292;18.598;2022-12-18T04:34:11;24.03;;;7.00;;
70270;SDS011;57680;54.292;18.598;2022-12-18T04:36:37;18.40;;;6.05;;
70270;SDS011;57680;54.292;18.598;2022-12-18T04:39:02;19.20;;;6.68;;
70270;SDS011;57680;54.292;18.598;2022-12-18T04:41:28;22.13;;;7.07;;
70270;SDS011;57680;54.292;18.598;2022-12-18T04:43:53;23.08;;;7.38;;
70270;SDS011;57680;54.292;18.598;2022-12-18T04:46:19;21.10;;;7.10;;
70270;SDS011;57680;54.292;18.598;2022-12-18T04:48:45;18.37;;;6.80;;
70270;SDS011;57680;54.292;18.598;2022-12-18T04:51:11;21.13;;;6.95;;
70270;SDS011;57680;54.292;18.598;2022-12-18T04:53:37;17.08;;;6.30;;
70270;SDS011;57680;54.292;18.598;2022-12-18T04:56:13;15.90;;;5.63;;
70270;SDS011;57680;54.292;18.598;2022-12-18T04:58:40;19.27;;;6.78;;
70270;SDS011;57680;54.292;18.598;2022-12-18T05:01:07;16.60;;;5.80;;
70270;SDS011;57680;54.292;18.598;2022-12-18T05:03:33;17.20;;;5.83;;
70270;SDS011;57680;54.292;18.598;2022-12-18T05:05:59;21.95;;;6.80;;
70270;SDS011;57680;54.292;18.598;2022-12-18T05:08:25;21.67;;;6.90;;
70270;SDS011;57680;54.292;18.598;2022-12-18T05:13:30;17.77;;;5.18;;
70270;SDS011;57680;54.292;18.598;2022-12-18T05:15:56;17.85;;;6.55;;
70270;SDS011;57680;54.292;18.598;2022-12-18T05:18:25;20.25;;;6.28;;
70270;SDS011;57680;54.292;18.598;2022-12-18T05:20:51;19.90;;;7.28;;
70270;SDS011;57680;54.292;18.598;2022-12-18T05:23:17;15.05;;;5.38;;
70270;SDS011;57680;54.292;18.598;2022-12-18T05:25:46;14.93;;;5.50;;
70270;SDS011;57680;54.292;18.598;2022-12-18T05:28:20;12.88;;;4.07;;
70270;SDS011;57680;54.292;18.598;2022-12-18T05:30:49;18.05;;;6.32;;
70270;SDS011;57680;54.292;18.598;2022-12-18T05:33:16;10.65;;;3.35;;
70270;SDS011;57680;54.292;18.598;2022-12-18T05:35:42;15.70;;;5.32;;
70270;SDS011;57680;54.292;18.598;2022-12-18T05:38:08;8.30;;;3.17;;
70270;SDS011;57680;54.292;18.598;2022-12-18T05:40:43;14.60;;;6.13;;
70270;SDS011;57680;54.292;18.598;2022-12-18T05:43:56;14.20;;;5.22;;
70270;SDS011;57680;54.292;18.598;2022-12-18T05:46:06;14.05;;;4.95;;
70270;SDS011;57680;54.292;18.598;2022-12-18T05:48:49;15.27;;;4.95;;
70270;SDS011;57680;54.292;18.598;2022-12-18T05:51:16;13.23;;;6.10;;
70270;SDS011;57680;54.292;18.598;2022-12-18T05:53:43;12.82;;;4.05;;
70270;SDS011;57680;54.292;18.598;2022-12-18T05:56:32;11.63;;;4.20;;
70270;SDS011;57680;54.292;18.598;2022-12-18T05:58:57;10.02;;;4.25;;
70270;SDS011;57680;54.292;18.598;2022-12-18T06:01:24;16.77;;;5.60;;
70270;SDS011;57680;54.292;18.598;2022-12-18T06:03:51;10.20;;;3.85;;
70270;SDS011;57680;54.292;18.598;2022-12-18T06:06:18;14.20;;;5.40;;
70270;SDS011;57680;54.292;18.598;2022-12-18T06:08:45;12.80;;;5.32;;
70270;SDS011;57680;54.292;18.598;2022-12-18T06:11:11;17.30;;;5.15;;
70270;SDS011;57680;54.292;18.598;2022-12-18T06:13:37;12.43;;;4.87;;
70270;SDS011;57680;54.292;18.598;2022-12-18T06:16:04;17.52;;;5.97;;
70270;SDS011;57680;54.292;18.598;2022-12-18T06:18:30;15.88;;;4.93;;
70270;SDS011;57680;54.292;18.598;2022-12-18T06:20:56;17.35;;;5.43;;
70270;SDS011;57680;54.292;18.598;2022-12-18T06:23:22;16.00;;;6.10;;
70270;SDS011;57680;54.292;18.598;2022-12-18T06:25:48;12.70;;;5.22;;
70270;SDS011;57680;54.292;18.598;2022-12-18T06:28:14;14.30;;;5.63;;
70270;SDS011;57680;54.292;18.598;2022-12-18T06:30:39;12.70;;;4.85;;
70270;SDS011;57680;54.292;18.598;2022-12-18T06:33:05;19.80;;;6.37;;
70270;SDS011;57680;54.292;18.598;2022-12-18T06:35:31;19.08;;;6.38;;
70270;SDS011;57680;54.292;18.598;2022-12-18T06:37:57;18.27;;;5.83;;
70270;SDS011;57680;54.292;18.598;2022-12-18T06:40:22;16.20;;;5.50;;
70270;SDS011;57680;54.292;18.598;2022-12-18T06:46:20;11.40;;;4.70;;
70270;SDS011;57680;54.292;18.598;2022-12-18T06:48:49;15.70;;;6.20;;
70270;SDS011;57680;54.292;18.598;2022-12-18T06:51:16;12.07;;;5.07;;
70270;SDS011;57680;54.292;18.598;2022-12-18T06:53:42;15.65;;;5.53;;
70270;SDS011;57680;54.292;18.598;2022-12-18T06:56:08;17.80;;;6.23;;
70270;SDS011;57680;54.292;18.598;2022-12-18T06:58:34;14.55;;;5.57;;
70270;SDS011;57680;54.292;18.598;2022-12-18T07:01:00;17.90;;;6.45;;
70270;SDS011;57680;54.292;18.598;2022-12-18T07:03:26;14.65;;;5.55;;
70270;SDS011;57680;54.292;18.598;2022-12-18T07:05:52;17.40;;;6.22;;
70270;SDS011;57680;54.292;18.598;2022-12-18T07:08:17;19.10;;;6.33;;
70270;SDS011;57680;54.292;18.598;2022-12-18T07:11:02;20.55;;;7.10;;
70270;SDS011;57680;54.292;18.598;2022-12-18T07:13:28;16.65;;;5.85;;
70270;SDS011;57680;54.292;18.598;2022-12-18T07:15:54;21.40;;;7.07;;
70270;SDS011;57680;54.292;18.598;2022-12-18T07:18:19;23.90;;;6.70;;
70270;SDS011;57680;54.292;18.598;2022-12-18T07:20:47;21.20;;;7.20;;
70270;SDS011;57680;54.292;18.598;2022-12-18T07:23:13;19.02;;;7.25;;
70270;SDS011;57680;54.292;18.598;2022-12-18T07:25:38;17.47;;;6.80;;
70270;SDS011;57680;54.292;18.598;2022-12-18T07:28:07;17.00;;;5.88;;
70270;SDS011;57680;54.292;18.598;2022-12-18T07:30:36;16.33;;;6.18;;
70270;SDS011;57680;54.292;18.598;2022-12-18T07:33:02;19.70;;;6.13;;
70270;SDS011;57680;54.292;18.598;2022-12-18T07:35:28;18.30;;;5.97;;
70270;SDS011;57680;54.292;18.598;2022-12-18T07:37:53;20.30;;;6.17;;
70270;SDS011;57680;54.292;18.598;2022-12-18T07:40:19;15.88;;;5.63;;
70270;SDS011;57680;54.292;18.598;2022-12-18T07:43:00;13.97;;;4.80;;
70270;SDS011;57680;54.292;18.598;2022-12-18T07:48:00;15.30;;;5.15;;
70270;SDS011;57680;54.292;18.598;2022-12-18T07:50:26;16.63;;;5.93;;
70270;SDS011;57680;54.292;18.598;2022-12-18T07:52:51;15.83;;;4.90;;
70270;SDS011;57680;54.292;18.598;2022-12-18T07:55:17;13.00;;;4.90;;
70270;SDS011;57680;54.292;18.598;2022-12-18T07:57:43;15.67;;;5.50;;
70270;SDS011;57680;54.292;18.598;2022-12-18T08:00:09;13.10;;;4.90;;
70270;SDS011;57680;54.292;18.598;2022-12-18T08:02:35;15.52;;;5.10;;
70270;SDS011;57680;54.292;18.598;2022-12-18T08:05:02;13.68;;;4.65;;
70270;SDS011;57680;54.292;18.598;2022-12-18T08:07:28;14.47;;;4.87;;
70270;SDS011;57680;54.292;18.598;2022-12-18T08:09:53;13.87;;;5.13;;
70270;SDS011;57680;54.292;18.598;2022-12-18T08:12:19;15.30;;;4.90;;
70270;SDS011;57680;54.292;18.598;2022-12-18T08:14:45;14.27;;;5.20;;
70270;SDS011;57680;54.292;18.598;2022-12-18T08:17:10;14.67;;;4.57;;
70270;SDS011;57680;54.292;18.598;2022-12-18T08:19:35;12.68;;;4.63;;
70270;SDS011;57680;54.292;18.598;2022-12-18T08:22:01;14.63;;;5.63;;
70270;SDS011;57680;54.292;18.598;2022-12-18T08:24:26;15.77;;;6.03;;
70270;SDS011;57680;54.292;18.598;2022-12-18T08:26:52;15.23;;;5.13;;
70270;SDS011;57680;54.292;18.598;2022-12-18T08:29:17;15.07;;;5.37;;
70270;SDS011;57680;54.292;18.598;2022-12-18T08:31:43;16.67;;;5.35;;
70270;SDS011;57680;54.292;18.598;2022-12-18T08:34:08;15.90;;;5.13;;
70270;SDS011;57680;54.292;18.598;2022-12-18T08:36:34;14.97;;;5.00;;
70270;SDS011;57680;54.292;18.598;2022-12-18T08:39:00;15.30;;;5.35;;
70270;SDS011;57680;54.292;18.598;2022-12-18T08:41:25;15.50;;;5.53;;
70270;SDS011;57680;54.292;18.598;2022-12-18T08:43:51;15.33;;;5.37;;
70270;SDS011;57680;54.292;18.598;2022-12-18T08:46:36;15.18;;;5.65;;
70270;SDS011;57680;54.292;18.598;2022-12-18T08:49:04;12.80;;;5.25;;
70270;SDS011;57680;54.292;18.598;2022-12-18T08:51:30;16.92;;;5.53;;
70270;SDS011;57680;54.292;18.598;2022-12-18T08:53:56;14.93;;;5.07;;
70270;SDS011;57680;54.292;18.598;2022-12-18T08:56:22;14.18;;;4.55;;
70270;SDS011;57680;54.292;18.598;2022-12-18T08:58:47;14.80;;;5.20;;
70270;SDS011;57680;54.292;18.598;2022-12-18T09:01:15;14.95;;;4.85;;
70270;SDS011;57680;54.292;18.598;2022-12-18T09:03:41;12.93;;;5.23;;
70270;SDS011;57680;54.292;18.598;2022-12-18T09:06:06;15.43;;;5.23;;
70270;SDS011;57680;54.292;18.598;2022-12-18T09:08:32;14.60;;;5.22;;
70270;SDS011;57680;54.292;18.598;2022-12-18T09:10:59;16.25;;;6.00;;
70270;SDS011;57680;54.292;18.598;2022-12-18T09:13:24;14.63;;;5.13;;
70270;SDS011;57680;54.292;18.598;2022-12-18T09:15:51;17.65;;;6.00;;
70270;SDS011;57680;54.292;18.598;2022-12-18T09:18:18;18.23;;;5.67;;
70270;SDS011;57680;54.292;18.598;2022-12-18T09:20:45;14.63;;;5.55;;
70270;SDS011;57680;54.292;18.598;2022-12-18T09:23:11;18.17;;;6.32;;
70270;SDS011;57680;54.292;18.598;2022-12-18T09:25:37;19.50;;;5.83;;
70270;SDS011;57680;54.292;18.598;2022-12-18T09:28:03;13.25;;;5.05;;
70270;SDS011;57680;54.292;18.598;2022-12-18T09:30:30;17.35;;;6.00;;
70270;SDS011;57680;54.292;18.598;2022-12-18T09:32:58;16.27;;;5.80;;
70270;SDS011;57680;54.292;18.598;2022-12-18T09:35:24;14.33;;;5.27;;
70270;SDS011;57680;54.292;18.598;2022-12-18T09:37:49;16.70;;;5.97;;
70270;SDS011;57680;54.292;18.598;2022-12-18T09:40:19;15.93;;;6.17;;
70270;SDS011;57680;54.292;18.598;2022-12-18T09:42:48;15.75;;;6.00;;
70270;SDS011;57680;54.292;18.598;2022-12-18T09:45:19;16.05;;;5.20;;
70270;SDS011;57680;54.292;18.598;2022-12-18T09:47:45;16.03;;;5.33;;
70270;SDS011;57680;54.292;18.598;2022-12-18T09:52:59;17.40;;;5.43;;
70270;SDS011;57680;54.292;18.598;2022-12-18T09:55:33;14.43;;;5.30;;
70270;SDS011;57680;54.292;18.598;2022-12-18T10:00:55;18.57;;;5.50;;
70270;SDS011;57680;54.292;18.598;2022-12-18T10:03:21;19.02;;;5.70;;
70270;SDS011;57680;54.292;18.598;2022-12-18T10:19:52;16.95;;;5.47;;
70270;SDS011;57680;54.292;18.598;2022-12-18T10:27:44;12.77;;;4.67;;
70270;SDS011;57680;54.292;18.598;2022-12-18T10:30:12;15.00;;;5.38;;
70270;SDS011;57680;54.292;18.598;2022-12-18T10:35:21;14.40;;;4.38;;
70270;SDS011;57680;54.292;18.598;2022-12-18T10:38:50;14.48;;;5.38;;
70270;SDS011;57680;54.292;18.598;2022-12-18T10:40:48;13.27;;;5.03;;
70270;SDS011;57680;54.292;18.598;2022-12-18T10:43:23;16.63;;;5.30;;
70270;SDS011;57680;54.292;18.598;2022-12-18T10:54:01;16.13;;;5.28;;
70270;SDS011;57680;54.292;18.598;2022-12-18T10:56:41;14.55;;;5.25;;
70270;SDS011;57680;54.292;18.598;2022-12-18T10:59:07;15.40;;;5.80;;
70270;SDS011;57680;54.292;18.598;2022-12-18T11:01:48;17.60;;;5.50;;
70270;SDS011;57680;54.292;18.598;2022-12-18T11:04:26;15.88;;;5.15;;
70270;SDS011;57680;54.292;18.598;2022-12-18T11:07:07;15.48;;;6.05;;
70270;SDS011;57680;54.292;18.598;2022-12-18T11:09:35;15.18;;;5.28;;
70270;SDS011;57680;54.292;18.598;2022-12-18T11:14:46;14.17;;;5.50;;
70270;SDS011;57680;54.292;18.598;2022-12-18T11:17:27;16.27;;;5.82;;
70270;SDS011;57680;54.292;18.598;2022-12-18T11:19:59;15.82;;;5.15;;
70270;SDS011;57680;54.292;18.598;2022-12-18T11:22:31;13.40;;;4.80;;
70270;SDS011;57680;54.292;18.598;2022-12-18T11:25:01;16.45;;;5.45;;
70270;SDS011;57680;54.292;18.598;2022-12-18T11:27:36;15.07;;;5.40;;
70270;SDS011;57680;54.292;18.598;2022-12-18T11:30:36;14.52;;;4.72;;
70270;SDS011;57680;54.292;18.598;2022-12-18T11:33:06;17.05;;;4.93;;
70270;SDS011;57680;54.292;18.598;2022-12-18T11:35:38;14.43;;;4.13;;
70270;SDS011;57680;54.292;18.598;2022-12-18T11:41:05;12.17;;;4.33;;
70270;SDS011;57680;54.292;18.598;2022-12-18T11:44:02;12.75;;;4.20;;
70270;SDS011;57680;54.292;18.598;2022-12-18T11:46:32;13.55;;;4.30;;
70270;SDS011;57680;54.292;18.598;2022-12-18T11:49:11;12.23;;;4.40;;
70270;SDS011;57680;54.292;18.598;2022-12-18T11:52:03;12.00;;;4.38;;
70270;SDS011;57680;54.292;18.598;2022-12-18T11:54:35;12.20;;;3.50;;
70270;SDS011;57680;54.292;18.598;2022-12-18T11:57:04;14.15;;;4.38;;
70270;SDS011;57680;54.292;18.598;2022-12-18T12:02:35;14.05;;;4.53;;
70270;SDS011;57680;54.292;18.598;2022-12-18T12:13:30;18.27;;;4.93;;
70270;SDS011;57680;54.292;18.598;2022-12-18T12:16:19;15.05;;;4.43;;
70270;SDS011;57680;54.292;18.598;2022-12-18T12:18:55;14.65;;;4.63;;
70270;SDS011;57680;54.292;18.598;2022-12-18T12:26:52;14.63;;;3.63;;
70270;SDS011;57680;54.292;18.598;2022-12-18T12:40:04;11.20;;;3.60;;
70270;SDS011;57680;54.292;18.598;2022-12-18T12:45:53;14.27;;;4.60;;
70270;SDS011;57680;54.292;18.598;2022-12-18T12:48:33;10.38;;;3.72;;
70270;SDS011;57680;54.292;18.598;2022-12-18T12:53:45;11.45;;;3.40;;
70270;SDS011;57680;54.292;18.598;2022-12-18T12:56:12;11.27;;;3.63;;
70270;SDS011;57680;54.292;18.598;2022-12-18T13:06:47;12.18;;;4.13;;
70270;SDS011;57680;54.292;18.598;2022-12-18T13:09:21;14.75;;;4.50;;
70270;SDS011;57680;54.292;18.598;2022-12-18T13:11:46;14.83;;;5.20;;
70270;SDS011;57680;54.292;18.598;2022-12-18T13:19:50;14.43;;;5.20;;
70270;SDS011;57680;54.292;18.598;2022-12-18T13:22:20;13.90;;;5.17;;
70270;SDS011;57680;54.292;18.598;2022-12-18T13:24:48;15.38;;;5.28;;
70270;SDS011;57680;54.292;18.598;2022-12-18T13:35:59;13.73;;;4.97;;
70270;SDS011;57680;54.292;18.598;2022-12-18T13:38:34;13.30;;;5.05;;
70270;SDS011;57680;54.292;18.598;2022-12-18T13:43:38;17.00;;;5.90;;
70270;SDS011;57680;54.292;18.598;2022-12-18T13:48:56;17.23;;;6.07;;
70270;SDS011;57680;54.292;18.598;2022-12-18T13:51:26;15.60;;;4.90;;
70270;SDS011;57680;54.292;18.598;2022-12-18T13:56:55;16.52;;;5.88;;
70270;SDS011;57680;54.292;18.598;2022-12-18T13:59:34;14.97;;;5.30;;
70270;SDS011;57680;54.292;18.598;2022-12-18T14:02:05;15.23;;;5.25;;
70270;SDS011;57680;54.292;18.598;2022-12-18T14:04:39;17.83;;;5.82;;
70270;SDS011;57680;54.292;18.598;2022-12-18T14:07:06;17.03;;;5.30;;
70270;SDS011;57680;54.292;18.598;2022-12-18T14:09:36;19.45;;;5.55;;
70270;SDS011;57680;54.292;18.598;2022-12-18T14:12:05;18.30;;;6.15;;
70270;SDS011;57680;54.292;18.598;2022-12-18T14:14:50;17.38;;;5.50;;
70270;SDS011;57680;54.292;18.598;2022-12-18T14:17:17;16.10;;;5.30;;
70270;SDS011;57680;54.292;18.598;2022-12-18T14:19:44;17.35;;;5.57;;
70270;SDS011;57680;54.292;18.598;2022-12-18T14:22:17;16.63;;;5.38;;
70270;SDS011;57680;54.292;18.598;2022-12-18T14:24:45;16.10;;;5.10;;
70270;SDS011;57680;54.292;18.598;2022-12-18T14:27:17;16.80;;;5.45;;
70270;SDS011;57680;54.292;18.598;2022-12-18T14:29:49;19.33;;;5.93;;
70270;SDS011;57680;54.292;18.598;2022-12-18T14:32:16;18.92;;;6.57;;
70270;SDS011;57680;54.292;18.598;2022-12-18T14:34:44;20.80;;;7.40;;
70270;SDS011;57680;54.292;18.598;2022-12-18T14:37:22;18.15;;;5.75;;
70270;SDS011;57680;54.292;18.598;2022-12-18T14:40:11;23.70;;;7.80;;
70270;SDS011;57680;54.292;18.598;2022-12-18T14:42:38;19.80;;;6.37;;
70270;SDS011;57680;54.292;18.598;2022-12-18T14:48:11;23.50;;;7.37;;
70270;SDS011;57680;54.292;18.598;2022-12-18T14:50:40;23.85;;;8.45;;
70270;SDS011;57680;54.292;18.598;2022-12-18T14:53:17;27.80;;;9.25;;
70270;SDS011;57680;54.292;18.598;2022-12-18T14:55:48;31.23;;;11.35;;
70270;SDS011;57680;54.292;18.598;2022-12-18T14:58:15;32.00;;;11.70;;
70270;SDS011;57680;54.292;18.598;2022-12-18T15:00:42;35.30;;;13.23;;
70270;SDS011;57680;54.292;18.598;2022-12-18T15:03:08;33.97;;;13.00;;
70270;SDS011;57680;54.292;18.598;2022-12-18T15:05:35;40.72;;;14.40;;
70270;SDS011;57680;54.292;18.598;2022-12-18T15:08:01;41.30;;;13.63;;
70270;SDS011;57680;54.292;18.598;2022-12-18T15:10:33;52.22;;;16.35;;
70270;SDS011;57680;54.292;18.598;2022-12-18T15:20:55;34.35;;;11.75;;
70270;SDS011;57680;54.292;18.598;2022-12-18T15:23:38;36.80;;;13.40;;
70270;SDS011;57680;54.292;18.598;2022-12-18T15:26:13;41.88;;;13.80;;
70270;SDS011;57680;54.292;18.598;2022-12-18T15:28:44;43.92;;;13.93;;
70270;SDS011;57680;54.292;18.598;2022-12-18T15:33:39;53.20;;;15.13;;
70270;SDS011;57680;54.292;18.598;2022-12-18T15:36:14;51.13;;;15.82;;
70270;SDS011;57680;54.292;18.598;2022-12-18T15:38:41;48.95;;;17.00;;
70270;SDS011;57680;54.292;18.598;2022-12-18T15:41:13;52.40;;;16.30;;
70270;SDS011;57680;54.292;18.598;2022-12-18T15:43:39;53.05;;;16.05;;
70270;SDS011;57680;54.292;18.598;2022-12-18T15:46:05;47.42;;;14.50;;
70270;SDS011;57680;54.292;18.598;2022-12-18T15:48:45;44.03;;;13.35;;
70270;SDS011;57680;54.292;18.598;2022-12-18T15:51:13;44.45;;;13.55;;
70270;SDS011;57680;54.292;18.598;2022-12-18T15:53:48;41.83;;;13.60;;
70270;SDS011;57680;54.292;18.598;2022-12-18T15:56:17;52.17;;;14.68;;
70270;SDS011;57680;54.292;18.598;2022-12-18T15:59:02;49.58;;;15.07;;
70270;SDS011;57680;54.292;18.598;2022-12-18T16:01:33;45.90;;;13.45;;
70270;SDS011;57680;54.292;18.598;2022-12-18T16:03:59;43.83;;;14.27;;
70270;SDS011;57680;54.292;18.598;2022-12-18T16:06:24;43.23;;;12.37;;
70270;SDS011;57680;54.292;18.598;2022-12-18T16:08:50;44.03;;;13.37;;
70270;SDS011;57680;54.292;18.598;2022-12-18T16:11:26;45.78;;;13.32;;
70270;SDS011;57680;54.292;18.598;2022-12-18T16:16:45;42.10;;;12.82;;
70270;SDS011;57680;54.292;18.598;2022-12-18T16:19:12;46.80;;;13.05;;
70270;SDS011;57680;54.292;18.598;2022-12-18T16:21:38;48.47;;;13.17;;
70270;SDS011;57680;54.292;18.598;2022-12-18T16:24:04;39.75;;;13.65;;
70270;SDS011;57680;54.292;18.598;2022-12-18T16:26:31;35.47;;;10.70;;
70270;SDS011;57680;54.292;18.598;2022-12-18T16:28:56;36.15;;;10.38;;
70270;SDS011;57680;54.292;18.598;2022-12-18T16:31:21;34.00;;;10.57;;
70270;SDS011;57680;54.292;18.598;2022-12-18T16:33:47;35.47;;;10.88;;
70270;SDS011;57680;54.292;18.598;2022-12-18T16:36:12;33.47;;;10.20;;
70270;SDS011;57680;54.292;18.598;2022-12-18T16:38:38;40.77;;;11.60;;
70270;SDS011;57680;54.292;18.598;2022-12-18T16:41:15;32.13;;;9.90;;
70270;SDS011;57680;54.292;18.598;2022-12-18T16:43:56;33.10;;;10.88;;
70270;SDS011;57680;54.292;18.598;2022-12-18T16:46:21;28.88;;;9.40;;
70270;SDS011;57680;54.292;18.598;2022-12-18T16:48:46;34.08;;;11.23;;
70270;SDS011;57680;54.292;18.598;2022-12-18T16:51:12;31.23;;;10.07;;
70270;SDS011;57680;54.292;18.598;2022-12-18T16:53:37;36.43;;;11.53;;
70270;SDS011;57680;54.292;18.598;2022-12-18T16:56:03;35.60;;;11.90;;
70270;SDS011;57680;54.292;18.598;2022-12-18T16:58:28;35.45;;;10.75;;
70270;SDS011;57680;54.292;18.598;2022-12-18T17:00:54;35.67;;;9.60;;
70270;SDS011;57680;54.292;18.598;2022-12-18T17:03:19;36.60;;;10.60;;
70270;SDS011;57680;54.292;18.598;2022-12-18T17:05:45;39.90;;;10.82;;
70270;SDS011;57680;54.292;18.598;2022-12-18T17:08:10;35.73;;;11.63;;
70270;SDS011;57680;54.292;18.598;2022-12-18T17:10:36;39.43;;;11.33;;
70270;SDS011;57680;54.292;18.598;2022-12-18T17:13:01;35.97;;;10.93;;
70270;SDS011;57680;54.292;18.598;2022-12-18T17:15:27;40.85;;;11.40;;
70270;SDS011;57680;54.292;18.598;2022-12-18T17:17:52;40.13;;;12.53;;
70270;SDS011;57680;54.292;18.598;2022-12-18T17:20:18;36.10;;;9.97;;
70270;SDS011;57680;54.292;18.598;2022-12-18T17:22:43;32.73;;;10.50;;